Time;durP1;ratioP1;P1;durP2;ratioP2;P2;SDS_P1;SDS_P2;PMS_P1;PMS_P2;Temp;Humidity;BMP_temperature;BMP_pressure;BME280_temperature;BME280_humidity;BME280_pressure;Samples;Min_cycle;Max_cycle;Signal;HPM_P1;HPM_P2
2022/08/17 00:00:13;;;;;;;14.30;12.80;;;;;;;19.36;87.61;96179.74;108240;1270;23742;-72
2022/08/17 00:03:10;;;;;;;14.90;13.40;;;;;;;19.36;87.89;96183.75;108262;1270;22553;-72
2022/08/17 00:05:44;;;;;;;15.70;13.30;;;;;;;19.39;87.77;96183.98;108258;1271;22554;-72
2022/08/17 00:08:19;;;;;;;14.90;13.30;;;;;;;19.38;87.64;96186.49;108178;1270;24379;-72
2022/08/17 00:10:51;;;;;;;14.80;13.20;;;;;;;19.39;87.56;96186.98;108270;1270;24364;-72
2022/08/17 00:13:27;;;;;;;15.40;13.10;;;;;;;19.40;87.50;96185.83;108252;1270;24265;-72
2022/08/17 00:16:01;;;;;;;15.40;13.80;;;;;;;19.37;87.52;96183.77;108262;1270;22551;-71
2022/08/17 00:18:34;;;;;;;15.20;13.60;;;;;;;19.29;87.66;96183.73;108152;1268;29133;-72
2022/08/17 00:21:08;;;;;;;14.30;13.00;;;;;;;19.20;87.75;96188.48;108185;1271;23523;-71
2022/08/17 00:23:40;;;;;;;15.10;13.60;;;;;;;19.12;87.95;96182.13;108257;1271;24278;-71
2022/08/17 00:26:12;;;;;;;15.00;13.50;;;;;;;19.09;88.15;96177.04;108255;1270;22637;-72
2022/08/17 00:28:43;;;;;;;15.90;13.60;;;;;;;19.03;88.07;96172.14;108124;1271;24770;-72
2022/08/17 00:31:14;;;;;;;15.30;13.80;;;;;;;18.94;88.08;96171.74;108276;1271;22626;-72
2022/08/17 00:33:45;;;;;;;15.20;13.20;;;;;;;18.89;88.12;96169.16;108246;1270;22683;-73
2022/08/17 00:36:18;;;;;;;14.90;13.40;;;;;;;18.90;88.48;96168.02;108254;1270;23712;-71
2022/08/17 00:38:49;;;;;;;15.70;13.90;;;;;;;18.91;88.45;96177.27;108243;1270;28301;-72
2022/08/17 00:41:23;;;;;;;15.90;14.10;;;;;;;18.92;88.85;96179.06;108299;1270;22592;-71
2022/08/17 00:43:57;;;;;;;16.00;13.30;;;;;;;18.93;88.73;96176.08;108277;1270;23858;-72
2022/08/17 00:46:32;;;;;;;14.40;13.00;;;;;;;18.84;88.65;96179.77;108296;1270;22695;-72
2022/08/17 00:49:04;;;;;;;15.00;13.40;;;;;;;18.79;88.67;96176.94;108176;1271;28519;-71
2022/08/17 00:51:42;;;;;;;14.40;12.90;;;;;;;18.80;88.82;96179.57;108289;1269;22545;-72
2022/08/17 00:54:18;;;;;;;16.10;13.00;;;;;;;18.85;89.01;96175.70;108254;1270;22578;-71
2022/08/17 00:56:52;;;;;;;14.50;13.00;;;;;;;18.88;88.87;96176.49;108282;1270;25377;-72
2022/08/17 00:59:26;;;;;;;15.10;13.10;;;;;;;18.88;88.70;96173.65;108180;1270;23891;-72
2022/08/17 01:01:57;;;;;;;14.50;13.00;;;;;;;18.88;88.70;96174.95;108337;1270;22557;-72
2022/08/17 01:04:30;;;;;;;14.90;13.20;;;;;;;18.89;88.69;96176.15;108272;1270;22689;-71
2022/08/17 01:07:04;;;;;;;14.70;13.20;;;;;;;18.89;88.51;96178.05;108292;1270;22560;-72
2022/08/17 01:09:36;;;;;;;14.50;13.00;;;;;;;18.89;88.73;96173.77;108225;1270;30885;-72
2022/08/17 01:12:09;;;;;;;16.00;12.80;;;;;;;18.93;88.62;96174.48;108318;1270;22687;-72
2022/08/17 01:14:41;;;;;;;15.40;13.70;;;;;;;18.95;88.75;96174.00;108320;1270;22567;-71
2022/08/17 01:17:13;;;;;;;14.00;12.50;;;;;;;18.98;88.71;96171.77;108260;1270;22656;-71
2022/08/17 01:19:44;;;;;;;13.90;12.60;;;;;;;19.00;88.56;96168.28;108180;1271;27848;-72
2022/08/17 01:22:23;;;;;;;14.40;12.90;;;;;;;18.99;88.63;96172.95;108235;1270;22572;-72
2022/08/17 01:24:59;;;;;;;14.90;13.50;;;;;;;19.03;88.67;96170.75;108211;1271;22668;-71
2022/08/17 01:27:31;;;;;;;14.70;13.20;;;;;;;19.07;88.73;96171.92;108131;1273;22559;-72
2022/08/17 01:30:08;;;;;;;15.20;13.50;;;;;;;19.07;88.69;96174.47;108166;1271;25162;-72
2022/08/17 01:32:40;;;;;;;15.70;13.60;;;;;;;19.07;88.50;96174.47;108269;1271;23851;-71
2022/08/17 01:35:11;;;;;;;14.70;13.10;;;;;;;19.03;88.39;96176.13;108244;1271;22579;-71
2022/08/17 01:37:43;;;;;;;14.50;13.00;;;;;;;19.00;88.49;96174.44;108163;1271;22542;-71
2022/08/17 01:40:21;;;;;;;14.20;12.80;;;;;;;19.02;88.80;96178.71;108191;1271;24266;-71
2022/08/17 01:42:59;;;;;;;14.80;13.30;;;;;;;19.03;88.75;96178.67;108169;1273;24214;-72
2022/08/17 01:45:33;;;;;;;15.80;13.80;;;;;;;19.03;88.82;96177.66;108164;1273;22533;-72
2022/08/17 01:48:04;;;;;;;15.20;12.20;;;;;;;19.00;88.81;96174.21;108109;1271;34102;-72
2022/08/17 01:50:37;;;;;;;14.40;12.90;;;;;;;18.99;89.07;96170.16;108262;1270;25898;-72
2022/08/17 01:53:13;;;;;;;15.20;13.60;;;;;;;18.94;89.01;96173.20;108256;1270;24253;-72
2022/08/17 01:55:47;;;;;;;14.70;13.20;;;;;;;18.88;89.45;96171.67;108238;1271;24250;-72
2022/08/17 01:58:19;;;;;;;14.30;12.40;;;;;;;18.85;89.67;96172.95;108135;1271;41114;-71
2022/08/17 02:00:53;;;;;;;14.20;12.90;;;;;;;18.82;89.79;96172.70;108277;1270;22613;-72
2022/08/17 02:03:25;;;;;;;15.50;13.40;;;;;;;18.78;89.95;96173.27;108228;1271;22573;-72
2022/08/17 02:05:56;;;;;;;15.80;13.00;;;;;;;18.76;90.12;96179.28;108236;1270;22564;-71
2022/08/17 02:08:31;;;;;;;15.80;14.30;;;;;;;18.72;90.40;96180.86;108170;1271;24929;-72
2022/08/17 02:11:03;;;;;;;15.70;13.40;;;;;;;18.69;90.48;96181.33;108231;1270;22525;-73
2022/08/17 02:13:34;;;;;;;14.30;12.80;;;;;;;18.69;90.66;96183.38;108241;1270;22761;-72
2022/08/17 02:16:06;;;;;;;14.90;13.20;;;;;;;18.71;90.87;96181.67;108230;1270;22483;-73
2022/08/17 02:18:37;;;;;;;15.80;13.60;;;;;;;18.74;90.89;96182.16;108191;1271;24715;-72
2022/08/17 02:21:09;;;;;;;15.20;13.70;;;;;;;18.78;90.78;96178.89;108295;1270;22727;-71
2022/08/17 02:23:46;;;;;;;14.70;13.20;;;;;;;18.80;90.60;96178.48;108285;1270;22479;-71
2022/08/17 02:26:18;;;;;;;14.50;13.00;;;;;;;18.85;90.68;96179.14;108311;1270;22562;-72
2022/08/17 02:28:49;;;;;;;15.10;13.50;;;;;;;18.85;90.39;96181.70;108155;1271;36839;-72
2022/08/17 02:31:21;;;;;;;17.10;13.80;;;;;;;18.84;90.20;96186.36;108295;1270;22577;-72
2022/08/17 02:33:52;;;;;;;14.90;13.20;;;;;;;18.81;90.07;96182.97;108222;1270;22702;-72
2022/08/17 02:36:23;;;;;;;14.90;13.20;;;;;;;18.79;90.15;96182.67;108254;1270;23410;-72
2022/08/17 02:38:55;;;;;;;15.10;13.60;;;;;;;18.76;90.28;96188.05;108214;1270;36260;-72
2022/08/17 02:41:26;;;;;;;14.20;12.80;;;;;;;18.74;90.28;96194.04;108333;1270;22614;-71
2022/08/17 02:43:57;;;;;;;14.70;13.10;;;;;;;18.73;90.36;96197.48;108331;1270;22564;-72
2022/08/17 02:46:29;;;;;;;16.10;14.20;;;;;;;18.72;90.39;96193.02;108332;1270;23443;-72
2022/08/17 02:49:02;;;;;;;15.00;13.50;;;;;;;18.74;90.38;96191.20;108159;1271;31071;-72
2022/08/17 02:51:34;;;;;;;15.10;13.70;;;;;;;18.76;90.36;96195.48;108275;1270;22531;-72
2022/08/17 02:54:08;;;;;;;15.40;13.50;;;;;;;18.76;90.33;96194.97;108247;1270;22565;-71
2022/08/17 02:56:39;;;;;;;15.10;13.30;;;;;;;18.72;89.93;96194.85;108195;1271;25369;-72
2022/08/17 02:59:10;;;;;;;14.80;13.20;;;;;;;18.67;90.06;96194.48;108172;1270;24572;-72
2022/08/17 03:01:41;;;;;;;14.50;13.00;;;;;;;18.67;90.20;96194.45;108277;1270;24228;-71
2022/08/17 03:04:12;;;;;;;14.30;12.60;;;;;;;18.63;90.15;96196.02;108123;1273;22467;-72
2022/08/17 03:06:43;;;;;;;15.00;13.50;;;;;;;18.60;90.31;96192.64;108245;1270;23908;-72
2022/08/17 03:09:15;;;;;;;14.50;13.00;;;;;;;18.58;90.42;96191.18;108254;1267;25544;-72
2022/08/17 03:11:46;;;;;;;15.40;13.80;;;;;;;18.57;90.84;96187.21;108343;1269;23347;-72
2022/08/17 03:14:18;;;;;;;14.80;13.30;;;;;;;18.55;90.86;96185.95;108302;1270;22563;-72
2022/08/17 03:16:49;;;;;;;15.40;13.70;;;;;;;18.52;90.99;96186.18;108349;1269;23826;-72
2022/08/17 03:19:20;;;;;;;15.30;13.70;;;;;;;18.50;91.08;96188.48;108143;1271;25037;-72
2022/08/17 03:21:51;;;;;;;16.30;14.20;;;;;;;18.49;91.06;96193.13;108304;1270;23034;-72
2022/08/17 03:24:22;;;;;;;15.40;13.60;;;;;;;18.49;91.05;96198.58;108249;1270;25912;-72
2022/08/17 03:26:53;;;;;;;16.00;13.20;;;;;;;18.48;91.14;96198.34;108241;1270;25258;-72
2022/08/17 03:29:24;;;;;;;16.20;13.30;;;;;;;18.50;91.10;96200.75;108144;1270;28576;-72
2022/08/17 03:31:55;;;;;;;14.80;13.30;;;;;;;18.51;91.22;96201.55;108345;1270;22555;-72
2022/08/17 03:34:26;;;;;;;14.00;12.60;;;;;;;18.53;91.22;96208.44;108243;1270;23660;-72
2022/08/17 03:36:57;;;;;;;15.70;13.70;;;;;;;18.55;91.20;96204.66;108336;1269;22604;-71
2022/08/17 03:39:28;;;;;;;14.20;12.80;;;;;;;18.58;91.22;96205.73;108205;1270;25975;-71
2022/08/17 03:42:06;;;;;;;15.10;13.50;;;;;;;18.60;91.15;96202.84;108258;1270;22585;-72
2022/08/17 03:44:37;;;;;;;15.20;13.60;;;;;;;18.64;91.26;96205.20;108262;1270;22648;-72
2022/08/17 03:58:23;;;;;;;13.90;12.50;;;;;;;18.86;90.86;96213.80;108157;1270;27841;-71
2022/08/17 04:00:55;;;;;;;13.40;12.00;;;;;;;18.89;90.75;96210.44;108257;1270;22464;-72
2022/08/17 04:03:29;;;;;;;13.70;12.30;;;;;;;18.95;90.51;96212.13;108159;1271;22493;-72
2022/08/17 04:06:01;;;;;;;13.90;12.50;;;;;;;18.99;90.38;96209.41;108264;1270;22471;-71
2022/08/17 04:08:32;;;;;;;14.50;13.00;;;;;;;19.07;90.23;96211.09;108130;1269;31596;-72
2022/08/17 04:11:03;;;;;;;13.90;12.50;;;;;;;19.16;90.21;96213.16;108306;1270;22530;-72
2022/08/17 04:13:34;;;;;;;13.80;12.30;;;;;;;19.26;89.89;96217.29;108302;1270;23860;-72
2022/08/17 04:16:06;;;;;;;16.50;13.70;;;;;;;19.34;89.47;96219.48;108324;1270;23858;-72
2022/08/17 04:18:37;;;;;;;13.80;12.40;;;;;;;19.40;89.24;96218.11;108188;1270;33055;-71
2022/08/17 04:21:10;;;;;;;14.30;12.80;;;;;;;19.44;89.02;96221.98;108324;1270;22626;-72
2022/08/17 04:23:41;;;;;;;14.80;12.90;;;;;;;19.50;88.70;96225.50;108236;1270;22719;-72
2022/08/17 04:26:13;;;;;;;14.00;12.30;;;;;;;19.56;88.51;96230.09;108193;1270;22539;-73
2022/08/17 04:28:44;;;;;;;14.00;12.50;;;;;;;19.65;88.47;96226.92;108268;1270;26435;-72
2022/08/17 04:31:16;;;;;;;14.80;12.90;;;;;;;19.79;88.30;96226.05;108283;1270;25378;-73
2022/08/17 04:33:47;;;;;;;12.50;11.30;;;;;;;19.93;87.80;96222.40;108258;1270;22566;-72
2022/08/17 04:36:18;;;;;;;13.50;12.20;;;;;;;20.12;87.13;96220.63;108278;1270;25410;-72
2022/08/17 04:38:50;;;;;;;12.70;11.20;;;;;;;20.79;86.85;96219.20;108175;1270;27540;-72
2022/08/17 04:44:10;;;;;;;13.60;11.40;;;;;;;22.75;82.27;96226.16;108196;1271;22566;-72
2022/08/17 04:46:41;;;;;;;13.30;11.90;;;;;;;23.43;79.34;96229.86;108148;1271;22511;-72
2022/08/17 04:49:13;;;;;;;13.60;11.80;;;;;;;23.94;76.90;96233.32;108171;1270;25038;-73
2022/08/17 04:51:47;;;;;;;11.60;10.40;;;;;;;24.41;74.90;96235.17;108282;1270;22621;-72
2022/08/17 04:54:20;;;;;;;11.60;10.40;;;;;;;24.76;72.50;96233.92;108148;1271;25246;-72
2022/08/17 04:56:52;;;;;;;12.20;11.00;;;;;;;25.01;71.17;96231.83;108256;1270;22965;-72
2022/08/17 04:59:23;;;;;;;11.50;10.40;;;;;;;25.47;69.99;96231.30;108164;1270;26830;-72
2022/08/17 05:01:54;;;;;;;12.20;11.00;;;;;;;25.77;68.05;96228.27;108311;1270;22567;-72
2022/08/17 05:04:27;;;;;;;12.00;10.80;;;;;;;26.12;66.67;96234.13;108304;1270;22552;-72
2022/08/17 05:06:58;;;;;;;11.40;10.20;;;;;;;26.41;65.61;96231.41;108307;1270;22562;-72
2022/08/17 05:09:30;;;;;;;11.70;10.00;;;;;;;26.76;64.45;96236.41;108229;1270;31704;-72
2022/08/17 05:12:04;;;;;;;12.50;10.10;;;;;;;27.11;62.69;96239.20;108313;1270;22727;-72
2022/08/17 05:14:38;;;;;;;11.90;10.60;;;;;;;27.51;62.16;96241.75;108226;1270;23813;-73
2022/08/17 05:17:09;;;;;;;10.90;9.80;;;;;;;27.93;60.99;96245.41;108283;1270;22467;-72
2022/08/17 05:19:41;;;;;;;10.70;9.60;;;;;;;28.31;60.10;96246.06;108292;1270;23011;-73
2022/08/17 05:22:14;;;;;;;10.50;9.50;;;;;;;28.79;58.56;96252.27;108237;1270;22678;-71
2022/08/17 05:24:46;;;;;;;12.60;10.20;;;;;;;29.15;57.43;96252.03;108345;1270;22691;-73
2022/08/17 05:27:17;;;;;;;10.50;9.40;;;;;;;29.33;56.36;96253.39;108298;1268;22529;-72
2022/08/17 05:29:49;;;;;;;10.20;9.20;;;;;;;29.62;55.39;96252.02;108165;1270;35722;-72
2022/08/17 05:32:22;;;;;;;9.90;8.90;;;;;;;29.83;54.21;96254.21;108297;1269;22591;-73
2022/08/17 05:34:58;;;;;;;10.40;9.40;;;;;;;30.08;54.05;96254.33;108231;1270;25366;-73
2022/08/17 05:37:30;;;;;;;11.10;10.00;;;;;;;30.58;53.04;96254.39;108312;1270;24043;-73
2022/08/17 05:40:01;;;;;;;11.70;10.20;;;;;;;30.76;52.08;96256.12;108190;1271;24245;-74
2022/08/17 05:42:33;;;;;;;10.00;9.10;;;;;;;30.99;51.50;96257.17;108199;1271;25876;-74
2022/08/17 05:45:06;;;;;;;10.40;8.70;;;;;;;31.26;50.37;96257.92;108220;1271;22534;-75
2022/08/17 05:47:39;;;;;;;9.90;8.70;;;;;;;31.44;49.85;96260.46;108283;1271;24242;-74
2022/08/17 05:50:15;;;;;;;10.10;9.10;;;;;;;31.87;49.19;96258.52;108224;1271;25255;-71
2022/08/17 05:52:53;;;;;;;10.80;9.10;;;;;;;32.13;48.26;96252.60;108203;1271;22557;-73
2022/08/17 05:55:34;;;;;;;10.90;8.70;;;;;;;32.43;47.60;96254.80;108293;1271;22578;-70
2022/08/17 05:58:19;;;;;;;10.50;9.30;;;;;;;32.63;47.08;96258.68;108201;1270;39395;-73
2022/08/17 06:01:02;;;;;;;10.50;9.40;;;;;;;33.01;47.20;96262.17;108319;1270;22520;-71
2022/08/17 06:03:49;;;;;;;10.60;9.50;;;;;;;33.80;46.21;96261.60;108301;1270;23019;-71
2022/08/17 06:06:36;;;;;;;10.90;9.10;;;;;;;34.29;44.86;96261.33;108432;1270;22600;-71
2022/08/17 06:09:22;;;;;;;9.40;8.50;;;;;;;34.88;44.51;96260.48;108194;1271;53087;-71
2022/08/17 06:11:59;;;;;;;10.70;9.10;;;;;;;35.46;43.38;96261.50;108361;1270;22558;-72
2022/08/17 06:14:47;;;;;;;9.00;8.10;;;;;;;35.79;42.93;96260.92;108369;1270;22553;-71
2022/08/17 06:17:24;;;;;;;9.60;8.40;;;;;;;35.95;41.89;96259.66;108277;1271;22553;-73
2022/08/17 06:19:59;;;;;;;9.90;8.70;;;;;;;36.23;41.60;96261.42;108200;1271;29985;-72
2022/08/17 06:22:34;;;;;;;8.90;8.10;;;;;;;36.50;40.37;96262.00;108266;1271;22699;-70
2022/08/17 06:25:12;;;;;;;11.00;9.00;;;;;;;36.74;40.59;96257.57;108269;1271;24320;-71
2022/08/17 06:27:47;;;;;;;11.00;8.10;;;;;;;36.92;39.37;96256.91;108195;1271;96844;-71
2022/08/17 06:30:24;;;;;;;8.40;7.60;;;;;;;37.44;39.93;96259.05;108322;1270;22546;-70
2022/08/17 06:33:04;;;;;;;9.50;8.60;;;;;;;38.16;38.82;96256.91;108295;1270;22544;-72
2022/08/17 06:35:44;;;;;;;9.20;7.20;;;;;;;38.52;38.15;96256.13;108429;1270;24242;-72
2022/08/17 06:38:23;;;;;;;9.10;7.60;;;;;;;38.87;37.03;96259.04;108239;1270;41398;-71
2022/08/17 06:41:04;;;;;;;8.80;7.50;;;;;;;39.01;37.28;96260.92;108391;1270;25225;-71
2022/08/17 06:43:48;;;;;;;8.20;7.50;;;;;;;39.05;36.19;96263.93;108239;1270;23884;-71
2022/08/17 06:46:24;;;;;;;8.40;7.50;;;;;;;38.67;36.20;96264.97;108400;1270;22571;-71
2022/08/17 06:49:11;;;;;;;8.80;7.90;;;;;;;38.72;36.07;96264.09;108231;1270;33160;-71
2022/08/17 06:51:49;;;;;;;8.50;7.60;;;;;;;38.34;35.66;96263.27;108282;1270;23694;-71
2022/08/17 06:54:27;;;;;;;8.30;7.60;;;;;;;39.06;36.06;96266.62;108240;1270;22692;-71
2022/08/17 06:57:06;;;;;;;8.20;7.40;;;;;;;39.89;35.57;96265.86;108214;1270;22644;-72
2022/08/17 06:59:46;;;;;;;8.60;7.60;;;;;;;40.54;34.31;96268.67;108196;1270;24371;-72
2022/08/17 07:02:36;;;;;;;9.40;8.30;;;;;;;39.11;31.60;96267.15;108230;1270;25091;-72
2022/08/17 07:05:09;;;;;;;8.90;8.00;;;;;;;37.69;34.49;96274.45;107172;1270;1420997;-71
2022/08/17 07:08:02;;;;;;;8.70;7.70;;;;;;;37.89;34.57;96275.20;108240;1270;25380;-71
2022/08/17 07:10:44;;;;;;;9.20;8.30;;;;;;;37.62;34.59;96284.58;108236;1270;22553;-72
2022/08/17 07:13:38;;;;;;;8.70;7.90;;;;;;;38.19;35.57;96280.83;108206;1270;22702;-72
2022/08/17 07:16:22;;;;;;;7.90;7.20;;;;;;;39.26;34.82;96280.41;108236;1270;24220;-69
2022/08/17 07:18:56;;;;;;;9.20;7.70;;;;;;;39.71;33.86;96286.04;107921;1270;22849;-68
2022/08/17 07:21:39;;;;;;;11.00;7.40;;;;;;;39.92;33.13;96282.80;107935;1271;22495;-70
2022/08/17 07:24:31;;;;;;;8.60;7.70;;;;;;;40.19;32.65;96283.86;108165;1271;25021;-70
2022/08/17 07:27:10;;;;;;;10.30;7.80;;;;;;;40.32;32.23;96281.48;108181;1271;23806;-70
2022/08/17 07:29:47;;;;;;;8.20;7.40;;;;;;;39.74;32.47;96283.27;108132;1271;32952;-71
2022/08/17 07:32:23;;;;;;;8.80;7.90;;;;;;;39.15;32.80;96285.85;108246;1271;25310;-71
2022/08/17 07:35:11;;;;;;;9.70;8.30;;;;;;;38.95;33.81;96282.69;108219;1268;24037;-70
2022/08/17 07:37:49;;;;;;;9.70;8.10;;;;;;;39.14;33.21;96282.46;108364;1270;32376;-71
2022/08/17 07:40:32;;;;;;;9.80;8.30;;;;;;;37.53;32.62;96280.14;108382;1270;22554;-75
2022/08/17 07:43:15;;;;;;;10.50;9.50;;;;;;;35.02;35.31;96277.98;108231;1270;22502;-75
2022/08/17 07:48:50;;;;;;;11.80;9.50;;;;;;;34.55;38.94;96276.69;108257;1270;27296;-76
2022/08/17 07:51:30;;;;;;;10.00;9.00;;;;;;;34.56;38.79;96273.52;108345;1270;22564;-75
2022/08/17 07:54:21;;;;;;;13.30;10.90;;;;;;;33.83;38.02;96274.33;108286;1270;24617;-75
2022/08/17 07:56:56;;;;;;;10.80;9.70;;;;;;;32.73;40.37;96276.53;108495;1270;22531;-75
2022/08/17 07:59:31;;;;;;;11.30;10.10;;;;;;;33.74;40.81;96271.32;108365;1270;29107;-75
2022/08/17 08:02:22;;;;;;;11.40;9.90;;;;;;;34.49;39.53;96268.16;108273;1270;22538;-77
2022/08/17 08:05:03;;;;;;;12.70;9.50;;;;;;;33.34;39.40;96273.83;108264;1270;23539;-76
2022/08/17 08:07:38;;;;;;;14.10;9.70;;;;;;;32.89;40.45;96281.33;108232;1271;22471;-77
2022/08/17 08:10:15;;;;;;;13.60;11.10;;;;;;;32.47;40.25;96277.02;108254;1270;23503;-77
2022/08/17 08:12:48;;;;;;;12.20;10.20;;;;;;;31.63;41.45;96280.80;108335;1270;22682;-75
2022/08/17 08:15:24;;;;;;;10.90;9.80;;;;;;;32.72;42.00;96273.87;108161;1270;22679;-75
2022/08/17 08:17:58;;;;;;;10.40;9.30;;;;;;;32.74;40.78;96275.25;108177;1270;29502;-75
2022/08/17 08:20:40;;;;;;;9.80;8.60;;;;;;;32.70;41.76;96281.14;108294;1270;22589;-76
2022/08/17 08:23:20;;;;;;;11.00;8.70;;;;;;;33.93;39.71;96282.60;108243;1270;24332;-75
2022/08/17 08:26:03;;;;;;;10.80;9.40;;;;;;;33.09;39.90;96280.06;108231;1270;22647;-77
2022/08/17 08:28:43;;;;;;;13.10;10.30;;;;;;;32.05;41.42;96283.50;108194;1270;27972;-77
2022/08/17 08:31:26;;;;;;;16.10;11.00;;;;;;;31.36;42.61;96283.92;108331;1270;22804;-78
2022/08/17 08:34:11;;;;;;;12.40;11.10;;;;;;;30.92;43.64;96280.69;108281;1270;24457;-77
2022/08/17 08:36:53;;;;;;;13.70;11.20;;;;;;;30.56;44.59;96281.39;108301;1270;22530;-77
2022/08/17 08:39:31;;;;;;;13.10;11.20;;;;;;;30.41;45.68;96278.11;108141;1270;30392;-77
2022/08/17 08:42:13;;;;;;;12.30;10.60;;;;;;;30.84;46.23;96275.89;108284;1270;24225;-76
2022/08/17 08:44:51;;;;;;;11.60;10.20;;;;;;;31.99;46.21;96275.79;108336;1270;22541;-75
2022/08/17 08:47:47;;;;;;;11.40;9.80;;;;;;;32.65;44.31;96278.15;108227;1270;22595;-74
2022/08/17 08:50:30;;;;;;;12.10;10.20;;;;;;;32.23;43.00;96281.84;108259;1270;23526;-76
2022/08/17 08:53:20;;;;;;;11.60;9.60;;;;;;;31.43;43.50;96283.27;108256;1270;22575;-75
2022/08/17 08:55:55;;;;;;;11.30;10.00;;;;;;;32.18;44.63;96284.65;108230;1270;22562;-77
2022/08/17 08:58:36;;;;;;;13.90;10.00;;;;;;;34.00;42.55;96283.29;108208;1270;25402;-78
2022/08/17 09:01:28;;;;;;;14.30;8.70;;;;;;;34.18;41.84;96279.67;108268;1270;22554;-78
2022/08/17 09:04:17;;;;;;;12.00;9.10;;;;;;;35.01;41.38;96282.73;108245;1270;25361;-78
2022/08/17 09:06:56;;;;;;;10.30;9.00;;;;;;;34.37;39.49;96274.33;108236;1270;22559;-79
2022/08/17 09:09:41;;;;;;;12.40;8.90;;;;;;;33.21;40.31;96283.05;108214;1270;27316;-78
2022/08/17 09:12:21;;;;;;;12.40;8.90;;;;;;;33.06;40.22;96283.08;108182;1272;22525;-78
2022/08/17 09:14:58;;;;;;;10.90;8.80;;;;;;;32.46;40.98;96284.83;108257;1270;22877;-79
2022/08/17 09:17:36;;;;;;;12.60;9.00;;;;;;;32.39;41.81;96289.94;108174;1271;22523;-72
2022/08/17 09:20:16;;;;;;;13.00;9.30;;;;;;;32.50;41.92;96291.23;108296;1270;22676;-74
2022/08/17 09:22:54;;;;;;;14.30;10.10;;;;;;;32.15;42.75;96287.34;108168;1271;22533;-72
2022/08/17 09:25:31;;;;;;;11.00;9.20;;;;;;;32.07;43.16;96285.26;108189;1272;22603;-73
2022/08/17 09:28:06;;;;;;;14.10;9.80;;;;;;;31.60;43.39;96287.30;108206;1270;34286;-72
2022/08/17 09:30:42;;;;;;;12.10;10.30;;;;;;;31.25;44.49;96285.80;108325;1270;22803;-73
2022/08/17 09:33:21;;;;;;;14.00;9.00;;;;;;;31.45;45.02;96289.02;108347;1270;22573;-73
2022/08/17 09:35:59;;;;;;;10.80;8.90;;;;;;;31.78;44.48;96289.27;108232;1270;25147;-73
2022/08/17 09:38:40;;;;;;;9.90;8.20;;;;;;;31.72;43.99;96293.08;108172;1270;25147;-73
2022/08/17 09:41:20;;;;;;;11.10;8.60;;;;;;;31.05;42.44;96289.45;108219;1270;22574;-73
2022/08/17 10:10:30;;;;;;;18.40;16.70;;;;;;;29.59;46.76;96292.70;104628;1309;545300;-73
2022/08/17 10:17:16;;;;;;;18.90;16.60;;;;;;;30.00;47.88;96293.48;104676;1309;547155;-73
2022/08/17 10:19:54;;;;;;;15.90;14.30;;;;;;;29.69;47.02;96297.82;107628;1281;32347;-73
2022/08/17 10:28:12;;;;;;;18.50;15.80;;;;;;;28.58;48.55;96287.54;107570;1281;25749;-74
2022/08/17 10:30:50;;;;;;;18.30;15.30;;;;;;;28.55;49.58;96289.34;106733;1277;1344851;-74
2022/08/17 10:33:22;;;;;;;18.00;16.20;;;;;;;29.02;49.48;96288.13;107780;1280;22669;-74
2022/08/17 10:36:00;;;;;;;17.70;15.90;;;;;;;29.49;49.53;96286.05;107811;1280;22577;-73
2022/08/17 10:38:45;;;;;;;17.60;16.00;;;;;;;29.43;48.39;96288.08;107793;1277;33251;-71
2022/08/17 10:41:30;;;;;;;16.80;15.30;;;;;;;29.49;49.11;96281.13;107857;1278;23370;-74
2022/08/17 10:44:11;;;;;;;15.90;14.30;;;;;;;29.89;48.85;96274.19;107804;1277;25438;-74
2022/08/17 10:46:56;;;;;;;16.60;14.80;;;;;;;29.76;48.27;96272.13;107819;1278;22671;-74
2022/08/17 10:49:29;;;;;;;15.70;13.90;;;;;;;29.61;48.80;96279.44;108226;1271;30732;-75
2022/08/17 10:52:00;;;;;;;15.50;13.90;;;;;;;29.79;48.92;96277.39;108192;1271;22577;-76
2022/08/17 10:54:38;;;;;;;14.50;13.10;;;;;;;29.73;47.87;96283.80;108312;1271;22557;-75
2022/08/17 10:57:42;;;;;;;14.90;13.30;;;;;;;29.73;47.41;96288.70;108356;1271;22546;-75
2022/08/17 11:00:49;;;;;;;16.20;12.90;;;;;;;29.81;47.52;96287.83;108319;1271;23835;-75
2022/08/17 11:03:23;;;;;;;14.40;12.20;;;;;;;30.20;48.54;96277.35;108319;1271;22477;-75
2022/08/17 11:06:01;;;;;;;14.40;12.60;;;;;;;30.37;47.09;96275.43;108355;1271;23874;-75
2022/08/17 11:09:06;;;;;;;12.70;11.40;;;;;;;30.24;46.94;96270.81;108239;1271;32254;-75
2022/08/17 11:11:51;;;;;;;14.00;12.70;;;;;;;29.21;45.45;96274.58;108327;1271;23857;-76
2022/08/17 11:14:36;;;;;;;13.70;12.30;;;;;;;28.35;46.88;96277.11;108368;1271;22647;-67
2022/08/17 11:17:37;;;;;;;14.90;13.20;;;;;;;28.14;48.44;96282.55;108525;1268;25241;-70
2022/08/17 11:20:29;;;;;;;16.40;13.00;;;;;;;28.08;48.75;96275.36;108512;1268;22471;-73
2022/08/17 11:23:15;;;;;;;14.40;12.70;;;;;;;28.11;49.67;96284.44;108411;1268;23302;-76
2022/08/17 11:25:47;;;;;;;13.90;12.40;;;;;;;28.09;49.27;96297.77;108501;1268;22548;-74
2022/08/17 11:28:24;;;;;;;14.00;12.40;;;;;;;27.98;49.20;96299.02;108337;1268;41589;-75
2022/08/17 11:30:56;;;;;;;16.20;14.20;;;;;;;27.89;50.01;96301.40;108469;1268;22555;-75
2022/08/17 11:33:56;;;;;;;14.60;13.10;;;;;;;27.61;51.37;96299.44;108387;1268;22643;-76
2022/08/17 11:36:48;;;;;;;16.00;13.80;;;;;;;27.18;52.92;96314.92;108567;1267;22795;-77
2022/08/17 11:39:39;;;;;;;15.90;14.20;;;;;;;26.77;53.82;96315.91;108360;1268;29693;-75
2022/08/17 11:42:25;;;;;;;15.80;14.00;;;;;;;26.37;54.70;96315.60;108405;1268;22559;-74
2022/08/17 11:44:57;;;;;;;13.10;11.80;;;;;;;26.09;55.68;96317.58;108370;1268;24202;-72
2022/08/17 11:53:59;;;;;;;16.60;14.90;;;;;;;25.34;57.22;96329.81;108404;1268;22543;-74
2022/08/17 11:56:35;;;;;;;17.00;15.30;;;;;;;25.17;57.81;96326.45;108520;1268;22470;-75
2022/08/17 11:59:23;;;;;;;17.40;15.30;;;;;;;25.20;58.55;96329.13;108473;1268;29467;-74
2022/08/17 12:01:54;;;;;;;16.30;14.00;;;;;;;25.19;59.15;96331.90;108501;1268;24966;-70
2022/08/17 12:04:28;;;;;;;14.80;13.40;;;;;;;24.95;60.01;96326.16;108518;1268;22606;-74
2022/08/17 12:07:00;;;;;;;15.60;13.90;;;;;;;24.65;61.78;96324.93;108550;1267;22626;-76
2022/08/17 12:09:33;;;;;;;15.80;13.10;;;;;;;23.99;64.08;96330.77;108472;1268;31361;-77
2022/08/17 12:12:11;;;;;;;16.00;14.50;;;;;;;23.42;66.69;96337.06;108534;1268;23732;-77
2022/08/17 12:14:44;;;;;;;16.00;13.60;;;;;;;23.08;67.91;96332.37;108467;1268;23736;-77
2022/08/17 12:17:14;;;;;;;16.00;14.10;;;;;;;23.02;69.32;96329.66;108533;1268;24310;-79
2022/08/17 12:19:43;;;;;;;15.60;14.20;;;;;;;23.37;70.20;96331.20;108324;1268;26909;-78
2022/08/17 12:22:19;;;;;;;14.80;13.50;;;;;;;23.79;69.83;96331.95;108509;1268;22622;-81
2022/08/17 12:24:59;;;;;;;16.80;14.90;;;;;;;23.91;68.61;96329.21;108528;1268;22536;-80
2022/08/17 12:27:32;;;;;;;16.60;14.90;;;;;;;23.83;68.08;96328.59;108519;1268;22631;-80
2022/08/17 12:30:05;;;;;;;15.10;13.60;;;;;;;23.74;68.06;96331.05;108416;1268;34192;-80
2022/08/17 12:32:39;;;;;;;16.90;15.10;;;;;;;23.79;67.93;96322.67;108496;1268;22521;-80
2022/08/17 12:35:31;;;;;;;15.40;13.90;;;;;;;23.86;68.17;96317.55;108556;1268;23877;-79
2022/08/17 12:38:05;;;;;;;15.40;13.90;;;;;;;23.82;68.45;96327.58;108414;1268;35828;-79
2022/08/17 12:40:34;;;;;;;16.80;15.20;;;;;;;23.67;69.13;96337.55;108570;1268;24037;-79
2022/08/17 12:43:05;;;;;;;17.50;15.80;;;;;;;23.53;69.91;96333.17;108500;1268;22482;-79
2022/08/17 12:45:38;;;;;;;17.00;14.60;;;;;;;23.36;70.65;96337.06;108505;1268;23470;-79
2022/08/17 12:48:09;;;;;;;16.60;15.10;;;;;;;23.19;71.18;96338.15;108494;1268;26891;-79
2022/08/17 12:50:42;;;;;;;18.80;16.90;;;;;;;23.04;72.15;96340.51;108560;1268;22852;-78
2022/08/17 12:53:14;;;;;;;31.50;28.30;;;;;;;22.96;73.00;96337.53;108528;1267;22572;-79